Terminal Aerodrome Forecast
Issued by NWS

Home | Current Version | Previous Version | Text Only | Print | Product List | Glossary On
Versions: 1 2 3 4 5 6 7 8 9 10 11 12
000
FTUS46 KEKA 012300
TAFUKI
TAF
KUKI 012339Z 0200/0224 24007KT P6SM SKC
     FM020400 VRB04KT P6SM FEW250
     FM020600 00000KT P6SM SKC
     FM022000 13008KT P6SM SKC=

USA.gov is the U.S. government's official web portal to all federal, state and local government web resources and services.